createdAt,value
2022-11-04T00:01:05.995Z,15.46
2022-11-04T00:06:03.669Z,15.28
2022-11-04T00:11:19.974Z,15.43
2022-11-04T00:16:35.226Z,15.61
2022-11-04T00:21:49.524Z,15.64
2022-11-04T00:27:04.048Z,15.59
2022-11-04T00:32:19.601Z,15.70
2022-11-04T00:37:16.260Z,15.94
2022-11-04T00:42:14.192Z,15.52
2022-11-04T00:47:11.498Z,15.31
2022-11-04T00:52:08.110Z,15.18
2022-11-04T00:57:05.043Z,15.23
2022-11-04T01:02:01.721Z,15.22
2022-11-04T01:07:00.070Z,15.42
2022-11-04T01:11:58.459Z,15.57
2022-11-04T01:16:55.021Z,15.72
2022-11-04T01:21:52.208Z,15.92
2022-11-04T01:26:49.588Z,15.69
2022-11-04T01:31:50.497Z,15.40
2022-11-04T01:36:47.273Z,14.92
2022-11-04T01:41:43.973Z,14.83
2022-11-04T01:46:46.507Z,15.15
2022-11-04T01:51:43.463Z,15.20
2022-11-04T01:56:41.967Z,15.15
2022-11-04T02:01:38.742Z,15.31
2022-11-04T02:06:36.204Z,15.64
2022-11-04T02:11:50.732Z,15.90
2022-11-04T02:16:48.459Z,15.92
2022-11-04T02:21:59.652Z,15.99
2022-11-04T02:27:14.133Z,16.19
2022-11-04T02:32:14.933Z,16.33
2022-11-04T02:37:14.495Z,16.49
2022-11-04T02:42:14.740Z,16.48
2022-11-04T02:47:14.450Z,16.39
2022-11-04T02:52:12.442Z,16.28
2022-11-04T02:57:11.849Z,16.23
2022-11-04T03:02:15.378Z,16.08
2022-11-04T03:07:15.378Z,16.21
2022-11-04T03:12:17.590Z,16.08
2022-11-04T03:17:17.413Z,16.12
2022-11-04T03:22:16.681Z,16.08
2022-11-04T03:27:18.188Z,16.06
2022-11-04T03:32:21.461Z,15.93
2022-11-04T03:37:19.231Z,15.89
2022-11-04T03:42:22.476Z,15.88
2022-11-04T03:47:19.937Z,15.57
2022-11-04T03:52:17.864Z,15.49
2022-11-04T03:57:34.673Z,15.38
2022-11-04T04:02:38.510Z,15.37
2022-11-04T04:07:38.486Z,14.99
2022-11-04T04:12:37.958Z,14.91
2022-11-04T04:17:37.489Z,14.54
2022-11-04T04:22:36.789Z,14.11
2022-11-04T04:27:33.666Z,14.34
2022-11-04T04:32:34.730Z,14.14
2022-11-04T04:37:31.320Z,14.39
2022-11-04T04:42:48.954Z,14.54
2022-11-04T04:47:46.621Z,14.18
2022-11-04T04:52:46.415Z,14.04
2022-11-04T04:57:43.169Z,14.08
2022-11-04T05:02:39.788Z,14.18
2022-11-04T05:07:39.338Z,14.38
2022-11-04T05:12:54.480Z,14.42
2022-11-04T05:17:53.332Z,14.18
2022-11-04T05:22:50.758Z,13.95
2022-11-04T05:27:49.788Z,13.98
2022-11-04T05:32:46.385Z,14.27
2022-11-04T05:37:42.986Z,14.18
2022-11-04T05:42:42.676Z,13.95
2022-11-04T05:47:40.367Z,14.09
2022-11-04T05:52:37.049Z,14.17
2022-11-04T05:57:34.965Z,14.09
2022-11-04T06:02:35.266Z,14.10
2022-11-04T06:07:34.736Z,14.10
2022-11-04T06:12:31.238Z,13.94
2022-11-04T06:17:27.899Z,14.28
2022-11-04T06:22:28.357Z,14.11
2022-11-04T06:27:29.986Z,13.92
2022-11-04T06:32:26.669Z,14.43
2022-11-04T06:37:23.252Z,14.58
2022-11-04T06:42:20.776Z,14.54
2022-11-04T06:47:22.077Z,14.53
2022-11-04T06:52:21.044Z,14.86
2022-11-04T06:57:19.658Z,14.74
2022-11-04T07:02:17.202Z,15.01
2022-11-04T07:07:14.806Z,14.92
2022-11-04T07:12:11.607Z,15.08
2022-11-04T07:17:08.155Z,15.00
2022-11-04T07:22:05.632Z,14.32
2022-11-04T07:32:04.594Z,14.06
2022-11-04T07:37:01.426Z,13.81
2022-11-04T07:41:59.782Z,13.60
2022-11-04T07:46:57.017Z,13.85
2022-11-04T07:51:55.188Z,13.93
2022-11-04T07:56:51.810Z,14.14
2022-11-04T08:01:49.378Z,14.63
2022-11-04T08:06:48.794Z,15.07
2022-11-04T08:11:45.542Z,15.16
2022-11-04T08:16:42.184Z,15.70
2022-11-04T08:21:39.561Z,15.89
2022-11-04T08:26:36.260Z,16.29
2022-11-04T08:31:35.851Z,16.30
2022-11-04T08:36:36.094Z,16.43
2022-11-04T08:41:34.007Z,16.72
2022-11-04T08:46:33.121Z,16.87
2022-11-04T08:51:31.517Z,16.93
2022-11-04T08:56:29.468Z,17.03
2022-11-04T09:01:30.023Z,17.21
2022-11-04T09:06:35.348Z,17.20
2022-11-04T09:11:38.644Z,17.35
2022-11-04T09:16:39.493Z,17.51
2022-11-04T09:21:39.025Z,17.49
2022-11-04T09:26:39.363Z,17.64
2022-11-04T09:31:37.377Z,17.80
2022-11-04T09:36:34.633Z,17.89
2022-11-04T09:41:46.623Z,17.86
2022-11-04T09:46:50.964Z,18.16
2022-11-04T09:51:54.876Z,18.07
2022-11-04T09:56:54.553Z,18.39
2022-11-04T10:01:57.008Z,18.66
2022-11-04T10:07:02.992Z,18.78
2022-11-04T10:12:07.348Z,18.84
2022-11-04T10:17:09.226Z,18.89
2022-11-04T10:22:10.942Z,18.95
2022-11-04T10:27:13.088Z,18.85
2022-11-04T10:32:21.051Z,18.72
2022-11-04T10:37:19.588Z,18.71
2022-11-04T10:42:18.788Z,19.12
2022-11-04T10:47:22.512Z,19.35
2022-11-04T10:52:28.457Z,19.26
2022-11-04T10:57:25.958Z,19.44
2022-11-04T11:02:41.155Z,19.17
2022-11-04T11:07:41.662Z,19.26
2022-11-04T11:12:51.138Z,19.34
2022-11-04T11:17:48.970Z,19.49
2022-11-04T11:22:46.919Z,19.53
2022-11-04T11:27:47.152Z,19.32
2022-11-04T11:32:55.040Z,19.25
2022-11-04T11:37:57.474Z,19.45
2022-11-04T11:42:55.235Z,19.50
2022-11-04T11:47:54.560Z,19.56
2022-11-04T11:53:09.437Z,19.38
2022-11-04T12:14:15.896Z,20.00
2022-11-04T12:19:33.556Z,19.95
2022-11-04T12:24:38.766Z,20.12
2022-11-04T12:29:44.017Z,20.03
2022-11-04T12:34:50.753Z,20.12
2022-11-04T12:39:59.657Z,20.09
2022-11-04T12:45:04.110Z,20.04
2022-11-04T12:50:04.738Z,20.05
2022-11-04T12:55:06.105Z,20.15
2022-11-04T13:00:08.693Z,20.15
2022-11-04T13:05:08.953Z,19.94
2022-11-04T13:10:07.027Z,19.78
2022-11-04T13:15:07.823Z,19.77
2022-11-04T13:20:08.613Z,19.75
2022-11-04T13:25:08.456Z,19.80
2022-11-04T13:30:16.059Z,19.72
2022-11-04T13:35:19.924Z,20.03
2022-11-04T13:40:20.956Z,20.07
2022-11-04T13:45:18.853Z,19.93
2022-11-04T13:50:38.066Z,19.68
2022-11-04T13:55:36.715Z,19.61
2022-11-04T14:00:37.160Z,19.49
2022-11-04T14:05:53.129Z,19.56
2022-11-04T14:11:00.569Z,19.73
2022-11-04T14:16:02.654Z,19.56
2022-11-04T14:21:08.794Z,19.81
2022-11-04T14:26:06.628Z,19.70
2022-11-04T14:31:04.561Z,19.85
2022-11-04T14:36:16.631Z,19.73
2022-11-04T14:41:16.178Z,19.75
2022-11-04T14:46:18.730Z,19.74
2022-11-04T14:51:24.372Z,19.82
2022-11-04T14:56:26.326Z,19.76
2022-11-04T15:01:26.553Z,19.76
2022-11-04T15:06:40.274Z,19.69
2022-11-04T15:11:58.053Z,19.54
2022-11-04T15:16:57.050Z,19.62
2022-11-04T15:21:54.299Z,19.70
2022-11-04T15:26:53.978Z,19.68
2022-11-04T15:31:55.958Z,19.75
2022-11-04T15:36:55.313Z,19.75
2022-11-04T15:42:12.754Z,19.77
2022-11-04T15:47:22.670Z,19.65
2022-11-04T15:52:23.976Z,19.73
2022-11-04T15:57:24.462Z,19.65
2022-11-04T16:02:24.197Z,19.65
2022-11-04T16:07:22.407Z,19.62
2022-11-04T16:12:28.812Z,19.61
2022-11-04T16:17:26.582Z,19.54
2022-11-04T16:22:26.533Z,19.44
2022-11-04T16:27:23.918Z,19.55
2022-11-04T16:32:25.282Z,19.47
2022-11-04T16:37:22.043Z,19.49
2022-11-04T16:42:19.532Z,19.40
2022-11-04T16:47:19.207Z,19.51
2022-11-04T16:52:22.274Z,19.59
2022-11-04T16:57:19.583Z,19.51
2022-11-04T17:02:21.056Z,19.34
2022-11-04T17:07:17.806Z,19.51
2022-11-04T17:12:14.831Z,19.49
2022-11-04T17:17:12.663Z,19.53
2022-11-04T17:22:10.543Z,19.51
2022-11-04T17:27:07.336Z,19.58
2022-11-04T17:32:04.634Z,19.54
2022-11-04T17:37:02.075Z,19.43
2022-11-04T17:42:19.419Z,19.22
2022-11-04T17:47:16.095Z,18.92
2022-11-04T17:52:13.471Z,18.86
2022-11-04T17:57:10.054Z,18.83
2022-11-04T18:02:07.010Z,18.92
2022-11-04T18:07:03.980Z,18.87
2022-11-04T18:12:19.872Z,18.68
2022-11-04T18:17:16.601Z,18.90
2022-11-04T18:22:15.803Z,18.85
2022-11-04T18:27:16.254Z,18.99
2022-11-04T18:32:13.317Z,18.74
2022-11-04T18:37:10.799Z,18.84
2022-11-04T18:42:09.645Z,18.97
2022-11-04T18:47:07.184Z,19.02
2022-11-04T18:52:04.306Z,19.09
2022-11-04T18:57:01.064Z,19.07
2022-11-04T19:01:58.306Z,19.17
2022-11-04T19:06:55.729Z,19.06
2022-11-04T19:12:13.735Z,18.98
2022-11-04T19:17:10.382Z,18.94
2022-11-04T19:22:07.757Z,18.74
2022-11-04T19:27:04.562Z,18.66
2022-11-04T19:32:07.222Z,18.52
2022-11-04T19:37:07.143Z,18.63
2022-11-04T19:42:22.322Z,18.58
2022-11-04T19:47:19.358Z,18.70
2022-11-04T19:52:16.772Z,18.63
2022-11-04T19:57:13.646Z,18.67
2022-11-04T20:02:12.872Z,18.75
2022-11-04T20:07:13.919Z,18.82
2022-11-04T20:12:30.850Z,18.78
2022-11-04T20:17:27.799Z,18.77
2022-11-04T20:22:25.827Z,18.76
2022-11-04T20:27:23.845Z,18.79
2022-11-04T20:32:20.963Z,18.81
2022-11-04T20:37:19.043Z,18.81
2022-11-04T20:42:16.099Z,18.85
2022-11-04T20:47:13.533Z,18.91
2022-11-04T20:52:12.095Z,18.98
2022-11-04T20:57:16.278Z,18.92
2022-11-04T21:02:15.220Z,18.81
2022-11-04T21:07:17.260Z,18.90
2022-11-04T21:12:13.810Z,18.74
2022-11-04T21:17:10.690Z,18.68
2022-11-04T21:22:08.042Z,18.50
2022-11-04T21:27:04.907Z,18.61
2022-11-04T21:32:01.628Z,18.65
2022-11-04T21:36:58.168Z,18.41
2022-11-04T21:42:09.393Z,18.39
2022-11-04T21:47:07.234Z,18.53
2022-11-04T21:52:05.132Z,18.53
2022-11-04T21:57:02.442Z,18.74
2022-11-04T22:02:00.997Z,18.59
2022-11-04T22:06:57.594Z,18.65
2022-11-04T22:11:54.352Z,18.60
2022-11-04T22:16:52.642Z,18.57
2022-11-04T22:21:49.404Z,18.80
2022-11-04T22:26:47.019Z,18.68
2022-11-04T22:31:44.093Z,18.33
2022-11-04T22:36:45.907Z,18.26
2022-11-04T22:41:45.541Z,18.29
2022-11-04T22:46:42.251Z,18.35
2022-11-04T22:51:42.477Z,18.52
2022-11-04T22:56:39.193Z,18.43
2022-11-04T23:01:36.070Z,18.48
2022-11-04T23:06:32.959Z,18.53
2022-11-04T23:11:49.333Z,18.52
2022-11-04T23:17:04.869Z,18.50
2022-11-04T23:22:20.016Z,18.40
2022-11-04T23:27:32.241Z,18.34
2022-11-04T23:32:31.783Z,18.48
2022-11-04T23:37:30.997Z,18.48
2022-11-04T23:42:28.467Z,18.47
2022-11-04T23:47:43.324Z,18.48
2022-11-04T23:52:58.105Z,18.39
2022-11-04T23:58:13.397Z,18.33
